Time;durP1;ratioP1;P1;durP2;ratioP2;P2;SDS_P1;SDS_P2;PMS_P1;PMS_P2;Temp;Humidity;BMP_temperature;BMP_pressure;BME280_temperature;BME280_humidity;BME280_pressure;Samples;Min_cycle;Max_cycle;Signal;HPM_P1;HPM_P2
2022/02/22 00:01:30;;;;;;;1.08;0.95;;;20.40;38.20;;;;;;5114188;28;20054;-76
2022/02/22 00:03:55;;;;;;;0.60;0.60;;;20.40;38.20;;;;;;5114473;28;20072;-76
2022/02/22 00:06:21;;;;;;;1.02;0.77;;;20.40;38.70;;;;;;5113057;28;20048;-76
2022/02/22 00:08:47;;;;;;;1.58;0.90;;;20.40;38.10;;;;;;5095850;28;20054;-76
2022/02/22 00:11:13;;;;;;;1.13;0.65;;;20.40;38.10;;;;;;5113962;28;20070;-76
2022/02/22 00:13:39;;;;;;;1.35;0.80;;;20.40;38.20;;;;;;5113722;28;20484;-76
2022/02/22 00:16:05;;;;;;;1.52;0.80;;;20.40;38.20;;;;;;5114047;28;20388;-76
2022/02/22 00:18:32;;;;;;;0.60;0.60;;;20.40;38.20;;;;;;5112233;28;20043;-76
2022/02/22 00:20:58;;;;;;;1.02;0.90;;;20.40;38.20;;;;;;5113927;28;20078;-76
2022/02/22 00:23:24;;;;;;;1.52;0.80;;;20.40;38.20;;;;;;5113571;28;20051;-76
2022/02/22 00:25:49;;;;;;;1.02;0.80;;;20.40;38.20;;;;;;5113812;28;20054;-76
2022/02/22 00:28:19;;;;;;;1.50;1.10;;;20.40;38.20;;;;;;5113578;28;20519;-76
2022/02/22 00:30:46;;;;;;;0.70;0.70;;;20.40;38.20;;;;;;5094663;28;20129;-76
2022/02/22 00:33:12;;;;;;;1.48;0.80;;;20.40;38.20;;;;;;5113715;28;20487;-76
2022/02/22 00:35:38;;;;;;;1.00;0.80;;;20.40;38.20;;;;;;5114041;28;20054;-76
2022/02/22 00:38:03;;;;;;;1.35;0.85;;;20.40;38.20;;;;;;5095269;28;20054;-76
2022/02/22 00:40:29;;;;;;;0.80;0.70;;;20.40;38.20;;;;;;5095263;28;20043;-76
2022/02/22 00:42:54;;;;;;;1.23;0.73;;;20.40;38.20;;;;;;5113458;28;20108;-76
2022/02/22 00:45:20;;;;;;;0.82;0.70;;;20.40;38.20;;;;;;5113808;28;20121;-76
2022/02/22 00:47:45;;;;;;;0.93;0.80;;;20.40;38.20;;;;;;5112977;28;20451;-76
2022/02/22 00:50:11;;;;;;;0.82;0.60;;;20.40;38.20;;;;;;5095191;28;20043;-76
2022/02/22 00:52:37;;;;;;;0.98;0.70;;;20.40;38.20;;;;;;5113416;28;20044;-76
2022/02/22 00:55:03;;;;;;;1.40;0.85;;;20.40;38.20;;;;;;5113233;28;20407;-76
2022/02/22 00:57:28;;;;;;;1.50;0.85;;;20.40;38.20;;;;;;5113374;28;20396;-76
2022/02/22 00:59:54;;;;;;;1.13;1.02;;;20.40;38.20;;;;;;5113375;28;20227;-76
2022/02/22 01:02:20;;;;;;;1.60;0.77;;;20.40;38.20;;;;;;5113245;28;20419;-76
2022/02/22 01:04:46;;;;;;;0.95;0.73;;;20.40;38.20;;;;;;5113167;28;20078;-76
2022/02/22 01:07:16;;;;;;;1.15;0.75;;;20.40;38.20;;;;;;5111826;28;20132;-76
2022/02/22 01:09:46;;;;;;;1.40;0.60;;;20.40;38.20;;;;;;5113507;28;20083;-76
2022/02/22 01:12:14;;;;;;;1.27;0.75;;;20.40;38.20;;;;;;5093082;28;20055;-76
2022/02/22 01:14:40;;;;;;;0.75;0.63;;;20.40;38.20;;;;;;5113090;28;20134;-76
2022/02/22 01:17:07;;;;;;;1.38;0.80;;;20.40;38.20;;;;;;5112323;28;20465;-76
2022/02/22 01:19:33;;;;;;;1.35;0.70;;;20.40;38.20;;;;;;5093368;28;20135;-76
2022/02/22 01:21:58;;;;;;;1.05;0.60;;;20.40;38.20;;;;;;5113309;28;20194;-76
2022/02/22 01:24:24;;;;;;;0.70;0.70;;;20.40;38.20;;;;;;5113526;28;20058;-76
2022/02/22 01:26:49;;;;;;;1.67;0.80;;;20.40;38.20;;;;;;5112854;28;20043;-76
2022/02/22 01:29:15;;;;;;;1.25;0.85;;;20.40;38.20;;;;;;5112786;28;20078;-76
2022/02/22 01:31:40;;;;;;;0.60;0.60;;;20.30;38.20;;;;;;5112863;28;20047;-76
2022/02/22 01:34:07;;;;;;;1.67;0.80;;;20.30;38.20;;;;;;5112923;28;20056;-76
2022/02/22 01:36:32;;;;;;;1.15;0.75;;;20.40;38.30;;;;;;5112894;28;20530;-76
2022/02/22 01:38:58;;;;;;;4.00;0.90;;;20.40;38.20;;;;;;5112638;28;20067;-76
2022/02/22 01:41:25;;;;;;;1.13;0.70;;;20.30;38.20;;;;;;5112860;28;20051;-76
2022/02/22 01:43:52;;;;;;;1.25;0.90;;;20.30;38.30;;;;;;5113097;28;20100;-76
2022/02/22 01:46:19;;;;;;;1.33;0.70;;;20.30;38.20;;;;;;5077561;28;20052;-76
2022/02/22 01:48:47;;;;;;;1.45;0.95;;;20.40;38.30;;;;;;5112438;28;20044;-76
2022/02/22 01:51:13;;;;;;;0.60;0.60;;;20.30;38.30;;;;;;5112705;28;20452;-76
2022/02/22 01:53:39;;;;;;;1.02;0.80;;;20.30;38.20;;;;;;5093124;28;20142;-76
2022/02/22 01:56:07;;;;;;;1.13;0.77;;;20.30;38.30;;;;;;5112515;28;20492;-76
2022/02/22 01:58:33;;;;;;;1.67;0.80;;;20.30;38.30;;;;;;5112218;28;20185;-76
2022/02/22 02:01:03;;;;;;;0.70;0.57;;;20.30;38.30;;;;;;5112591;28;20147;-76
2022/02/22 02:03:29;;;;;;;1.35;0.70;;;20.30;38.30;;;;;;5111983;28;20487;-76
2022/02/22 02:05:55;;;;;;;0.88;0.70;;;20.30;38.30;;;;;;5112580;28;20056;-76
2022/02/22 02:08:20;;;;;;;0.70;0.68;;;20.30;38.30;;;;;;5093581;28;20048;-76
2022/02/22 02:10:46;;;;;;;0.70;0.70;;;20.30;38.30;;;;;;5112492;28;20048;-76
2022/02/22 02:13:12;;;;;;;1.95;0.75;;;20.30;38.30;;;;;;5112403;28;20130;-76
2022/02/22 02:15:38;;;;;;;0.50;0.50;;;20.30;38.30;;;;;;5112184;28;20048;-76
2022/02/22 02:18:04;;;;;;;1.05;0.80;;;20.30;38.30;;;;;;5112355;28;20058;-76
2022/02/22 02:20:30;;;;;;;1.15;0.80;;;20.30;38.30;;;;;;5112318;28;20063;-76
2022/02/22 02:22:56;;;;;;;1.50;0.82;;;20.30;38.30;;;;;;5112586;28;20081;-76
2022/02/22 02:25:22;;;;;;;1.20;0.80;;;20.30;38.30;;;;;;5094447;28;20044;-76
2022/02/22 02:27:48;;;;;;;1.13;0.50;;;20.30;38.20;;;;;;5112239;28;20047;-76
2022/02/22 02:30:16;;;;;;;1.05;0.80;;;20.30;38.30;;;;;;5095575;28;20130;-76
2022/02/22 02:32:42;;;;;;;1.45;0.68;;;20.30;38.20;;;;;;5115656;28;20052;-76
2022/02/22 02:35:08;;;;;;;1.67;0.93;;;20.30;38.20;;;;;;5114208;28;20487;-76
2022/02/22 02:37:35;;;;;;;1.27;0.80;;;20.30;38.20;;;;;;5115854;28;20139;-76
2022/02/22 02:40:05;;;;;;;1.48;0.90;;;20.30;38.30;;;;;;5115409;28;20134;-76
2022/02/22 02:42:31;;;;;;;0.50;0.50;;;20.30;38.30;;;;;;5097150;28;20085;-76
2022/02/22 02:44:57;;;;;;;0.90;0.75;;;20.30;38.20;;;;;;5115481;28;20474;-76
2022/02/22 02:47:23;;;;;;;2.35;0.90;;;20.30;38.30;;;;;;5115366;28;20495;-76
2022/02/22 02:49:48;;;;;;;1.38;0.60;;;20.30;38.30;;;;;;5115091;28;20058;-76
2022/02/22 02:52:14;;;;;;;0.82;0.75;;;20.30;38.20;;;;;;5115376;28;20047;-76
2022/02/22 02:54:40;;;;;;;0.82;0.60;;;20.30;38.20;;;;;;5115256;28;20546;-76
2022/02/22 02:57:06;;;;;;;1.10;0.70;;;20.30;38.20;;;;;;5115457;28;20520;-76
2022/02/22 02:59:31;;;;;;;3.60;1.00;;;20.40;38.30;;;;;;5096936;28;20047;-76
2022/02/22 03:01:57;;;;;;;1.10;0.75;;;20.30;38.20;;;;;;5115150;28;20523;-76
2022/02/22 03:04:22;;;;;;;1.10;0.90;;;20.30;38.20;;;;;;5097077;28;20051;-76
2022/02/22 03:06:48;;;;;;;1.05;0.63;;;20.40;38.20;;;;;;5115130;28;20043;-76
2022/02/22 03:09:14;;;;;;;1.08;0.60;;;20.30;38.20;;;;;;5113656;28;20083;-76
2022/02/22 03:11:39;;;;;;;1.35;0.77;;;20.30;38.20;;;;;;5114033;28;20058;-76
2022/02/22 03:14:07;;;;;;;1.55;0.80;;;20.40;38.20;;;;;;5115583;28;20086;-76
2022/02/22 03:16:33;;;;;;;0.75;0.68;;;20.40;38.20;;;;;;5097193;28;20059;-76
2022/02/22 03:19:02;;;;;;;1.45;0.85;;;20.40;38.20;;;;;;5114460;28;20059;-76
2022/02/22 03:21:29;;;;;;;1.10;0.68;;;20.40;38.20;;;;;;5114905;28;20055;-76
2022/02/22 03:23:56;;;;;;;1.65;0.70;;;20.40;38.20;;;;;;5096882;28;20232;-76
2022/02/22 03:26:22;;;;;;;1.30;0.80;;;20.40;38.20;;;;;;5095158;28;20495;-76
2022/02/22 03:28:50;;;;;;;1.77;0.90;;;20.40;38.10;;;;;;5114586;28;20051;-76
2022/02/22 03:31:16;;;;;;;0.90;0.80;;;20.40;38.10;;;;;;5096076;28;20514;-76
2022/02/22 03:33:42;;;;;;;1.10;0.82;;;20.40;38.10;;;;;;5096295;28;20048;-76
2022/02/22 03:36:08;;;;;;;1.10;0.70;;;20.40;38.10;;;;;;5096243;28;20047;-76
2022/02/22 03:38:33;;;;;;;1.13;0.70;;;20.40;38.10;;;;;;5114331;28;20056;-76
2022/02/22 03:41:01;;;;;;;1.08;0.65;;;20.40;38.10;;;;;;5113797;28;20126;-76
2022/02/22 03:43:27;;;;;;;1.40;0.90;;;20.40;38.10;;;;;;5114140;28;20384;-76
2022/02/22 03:45:53;;;;;;;1.27;0.90;;;20.40;38.10;;;;;;5094199;28;20105;-76
2022/02/22 03:48:18;;;;;;;2.38;1.00;;;20.40;38.10;;;;;;5113968;28;20950;-76
2022/02/22 03:50:44;;;;;;;1.60;0.90;;;20.50;38.10;;;;;;5114402;28;20050;-76
2022/02/22 03:53:10;;;;;;;1.15;0.80;;;20.50;38.10;;;;;;5113412;28;20051;-76
2022/02/22 03:55:36;;;;;;;1.13;0.70;;;20.50;38.10;;;;;;5095898;28;20069;-76
2022/02/22 03:58:01;;;;;;;0.75;0.68;;;20.50;38.10;;;;;;5114213;28;20047;-76
2022/02/22 04:00:28;;;;;;;1.48;0.80;;;20.50;38.10;;;;;;5114758;28;20047;-76
2022/02/22 04:02:53;;;;;;;0.50;0.50;;;20.50;38.00;;;;;;5114182;28;20075;-76
2022/02/22 04:05:20;;;;;;;1.52;0.75;;;20.50;38.00;;;;;;5114468;28;20483;-76
2022/02/22 04:07:46;;;;;;;1.10;0.70;;;20.60;38.00;;;;;;5114001;28;20051;-76
2022/02/22 04:10:12;;;;;;;2.38;0.75;;;20.60;38.00;;;;;;5114320;28;20089;-76
2022/02/22 04:12:38;;;;;;;1.23;0.80;;;20.60;38.00;;;;;;5112420;28;20082;-76
2022/02/22 04:15:05;;;;;;;1.30;0.70;;;20.60;37.90;;;;;;5095616;28;20054;-76
2022/02/22 04:17:31;;;;;;;1.35;0.60;;;20.60;37.90;;;;;;5096316;28;20099;-76
2022/02/22 04:19:58;;;;;;;1.42;0.93;;;20.60;37.90;;;;;;5113841;28;20051;-76
2022/02/22 04:22:23;;;;;;;1.33;0.88;;;20.60;37.90;;;;;;5095506;28;20047;-76
2022/02/22 04:24:49;;;;;;;0.85;0.70;;;20.60;37.90;;;;;;5113798;28;20142;-76
2022/02/22 04:27:15;;;;;;;1.55;0.80;;;20.60;37.90;;;;;;5112902;28;20056;-76
2022/02/22 04:29:41;;;;;;;1.50;1.10;;;20.60;37.90;;;;;;5113682;28;20059;-76
2022/02/22 04:32:07;;;;;;;1.67;0.70;;;20.60;37.90;;;;;;5113782;28;20063;-76
2022/02/22 04:34:33;;;;;;;1.33;0.70;;;20.60;37.90;;;;;;5114105;28;20075;-76
2022/02/22 04:36:59;;;;;;;1.27;0.88;;;20.60;37.90;;;;;;5095448;28;20054;-76
2022/02/22 04:39:25;;;;;;;1.73;0.90;;;20.60;37.80;;;;;;5095342;28;20091;-76
2022/02/22 04:41:51;;;;;;;0.70;0.70;;;20.60;37.80;;;;;;5113653;28;20411;-76
2022/02/22 04:44:17;;;;;;;0.65;0.63;;;20.60;37.80;;;;;;5095338;28;20083;-76
2022/02/22 04:46:43;;;;;;;2.17;1.05;;;20.60;37.80;;;;;;5113437;28;20052;-76
2022/02/22 04:49:09;;;;;;;0.90;0.77;;;20.60;37.80;;;;;;5078455;28;20055;-76
2022/02/22 04:51:43;;;;;;;2.47;1.10;;;20.60;37.80;;;;;;5112977;28;20055;-76
2022/02/22 04:54:10;;;;;;;2.05;1.02;;;20.60;37.80;;;;;;5078151;28;20480;-76
2022/02/22 04:56:35;;;;;;;2.45;0.95;;;20.60;37.80;;;;;;5113420;28;20085;-76
2022/02/22 04:59:01;;;;;;;2.15;1.20;;;20.60;37.80;;;;;;5113375;28;20482;-76
2022/02/22 05:01:27;;;;;;;2.17;0.82;;;20.60;37.80;;;;;;5113261;28;20055;-76
2022/02/22 05:03:53;;;;;;;2.28;0.98;;;20.60;37.80;;;;;;5113324;28;20130;-76
2022/02/22 05:06:19;;;;;;;0.98;0.80;;;20.60;37.80;;;;;;5113333;28;20111;-76
2022/02/22 05:08:47;;;;;;;1.70;0.70;;;20.60;37.80;;;;;;5113032;28;20051;-76
2022/02/22 05:11:12;;;;;;;1.30;0.80;;;20.60;37.80;;;;;;5113108;28;20090;-76
2022/02/22 05:17:19;;;;;;;1.55;0.73;;;20.60;37.90;;;;;;5112502;28;20127;-76
2022/02/22 05:19:45;;;;;;;1.20;0.90;;;20.60;37.80;;;;;;5112856;28;20040;-76
2022/02/22 05:22:10;;;;;;;2.55;0.80;;;20.60;37.80;;;;;;5113316;28;20122;-76
2022/02/22 05:24:36;;;;;;;1.58;0.98;;;20.60;37.80;;;;;;5112997;28;20246;-76
2022/02/22 05:27:02;;;;;;;1.05;0.80;;;20.60;37.90;;;;;;5113054;28;20058;-76
2022/02/22 05:29:27;;;;;;;1.25;0.80;;;20.60;37.90;;;;;;5093102;28;20508;-76
2022/02/22 05:31:53;;;;;;;1.50;0.95;;;20.60;37.80;;;;;;5113162;28;20051;-76
2022/02/22 05:34:19;;;;;;;1.23;0.90;;;20.60;37.90;;;;;;5094527;28;20479;-76
2022/02/22 05:36:44;;;;;;;2.17;0.90;;;20.60;37.90;;;;;;5112880;28;20069;-76
2022/02/22 05:39:10;;;;;;;0.75;0.70;;;20.60;37.80;;;;;;5092719;28;20122;-76
2022/02/22 05:41:36;;;;;;;1.35;0.80;;;20.60;37.80;;;;;;5111521;28;20083;-76
2022/02/22 05:44:01;;;;;;;1.15;0.70;;;20.60;37.80;;;;;;5094451;28;20053;-76
2022/02/22 05:46:28;;;;;;;1.30;1.00;;;20.60;37.80;;;;;;5112752;28;20055;-76
2022/02/22 05:48:53;;;;;;;1.42;1.02;;;20.60;37.80;;;;;;5111180;28;20449;-76
2022/02/22 05:51:19;;;;;;;1.38;1.00;;;20.60;37.80;;;;;;5112638;28;20073;-76
2022/02/22 05:53:48;;;;;;;1.00;0.70;;;20.60;37.80;;;;;;5111310;28;20490;-76
2022/02/22 05:56:14;;;;;;;1.95;0.90;;;20.60;37.80;;;;;;5094335;28;20537;-76
2022/02/22 05:58:39;;;;;;;1.80;0.88;;;20.60;37.80;;;;;;5094168;28;20082;-76
2022/02/22 06:01:05;;;;;;;1.85;0.90;;;20.60;37.80;;;;;;5112327;28;20138;-76
2022/02/22 06:03:30;;;;;;;2.20;1.10;;;20.70;37.80;;;;;;5113256;28;20051;-76
2022/02/22 06:05:56;;;;;;;1.70;0.88;;;20.70;37.80;;;;;;5116177;28;20063;-76
2022/02/22 06:08:22;;;;;;;1.17;0.88;;;20.70;37.80;;;;;;5115794;28;20384;-76
2022/02/22 06:10:48;;;;;;;2.25;0.88;;;20.60;37.80;;;;;;5112773;28;20081;-76
2022/02/22 06:13:15;;;;;;;1.60;0.90;;;20.60;37.80;;;;;;5115912;28;20052;-76
2022/02/22 06:15:40;;;;;;;2.45;1.02;;;20.60;37.80;;;;;;5115805;28;20051;-76
2022/02/22 06:18:06;;;;;;;1.42;0.90;;;20.70;37.70;;;;;;5115593;28;20555;-76
2022/02/22 06:20:34;;;;;;;1.63;0.77;;;20.70;37.70;;;;;;5115804;28;20089;-76
2022/02/22 06:22:59;;;;;;;2.28;1.20;;;20.70;37.70;;;;;;5116084;28;20058;-76
2022/02/22 06:25:26;;;;;;;1.88;0.70;;;20.70;37.70;;;;;;5115756;28;20076;-76
2022/02/22 06:27:53;;;;;;;1.40;0.90;;;20.70;37.70;;;;;;5097390;28;20047;-76
2022/02/22 06:30:22;;;;;;;1.60;0.88;;;20.70;37.70;;;;;;5113987;28;20407;-76
2022/02/22 06:32:49;;;;;;;0.90;0.68;;;20.70;37.60;;;;;;5115622;28;20079;-76
2022/02/22 06:35:16;;;;;;;1.08;0.88;;;20.70;37.60;;;;;;5115611;28;20526;-76
2022/02/22 06:37:41;;;;;;;1.92;0.90;;;20.70;37.70;;;;;;5115485;28;20047;-76
2022/02/22 06:40:08;;;;;;;1.63;1.13;;;20.70;37.70;;;;;;5115326;28;20514;-76
2022/02/22 06:42:35;;;;;;;1.30;0.90;;;20.80;37.70;;;;;;5115766;28;20055;-76
2022/02/22 06:45:00;;;;;;;1.52;0.80;;;20.70;37.60;;;;;;5115701;28;20056;-76
2022/02/22 06:47:26;;;;;;;1.50;0.85;;;20.80;37.70;;;;;;5097432;28;20054;-76
2022/02/22 06:49:52;;;;;;;1.38;1.05;;;20.80;37.70;;;;;;5115620;28;20050;-76
2022/02/22 06:52:18;;;;;;;0.85;0.75;;;20.70;37.60;;;;;;5115324;28;20112;-76
2022/02/22 06:54:45;;;;;;;1.02;0.80;;;20.80;37.60;;;;;;5115204;28;20040;-76
2022/02/22 06:57:11;;;;;;;1.92;0.77;;;20.80;37.60;;;;;;5095266;28;20088;-76
2022/02/22 06:59:37;;;;;;;1.05;0.63;;;20.80;37.60;;;;;;5113585;28;20057;-76
2022/02/22 07:02:03;;;;;;;1.33;0.80;;;20.80;37.60;;;;;;5115125;28;20083;-76
2022/02/22 07:04:28;;;;;;;1.80;0.90;;;20.80;37.60;;;;;;5113697;28;20044;-76
2022/02/22 07:06:54;;;;;;;1.27;0.80;;;20.90;37.50;;;;;;5096804;28;20047;-76
2022/02/22 07:09:19;;;;;;;2.45;0.95;;;20.80;37.40;;;;;;5096043;28;20138;-76
2022/02/22 07:11:45;;;;;;;1.33;0.80;;;20.90;37.50;;;;;;5115275;28;20138;-76
2022/02/22 07:14:10;;;;;;;2.13;1.00;;;20.90;37.50;;;;;;5096216;28;20120;-76
2022/02/22 07:16:36;;;;;;;1.95;0.90;;;20.90;37.40;;;;;;5114931;28;20055;-76
2022/02/22 07:19:03;;;;;;;1.10;0.82;;;20.90;37.40;;;;;;5114743;28;20093;-76
2022/02/22 07:21:28;;;;;;;1.45;0.93;;;21.00;37.40;;;;;;5114886;28;20047;-76
2022/02/22 07:23:54;;;;;;;1.73;0.95;;;20.90;37.30;;;;;;5113525;28;20101;-76
2022/02/22 07:26:20;;;;;;;1.85;1.17;;;20.90;37.30;;;;;;5113470;28;20075;-76
2022/02/22 07:28:47;;;;;;;2.28;1.23;;;20.90;37.30;;;;;;5114444;28;20062;-76
2022/02/22 07:31:12;;;;;;;1.30;0.70;;;20.90;37.30;;;;;;5114818;28;20055;-76
2022/02/22 07:33:38;;;;;;;2.30;1.20;;;20.90;37.30;;;;;;5112801;28;20408;-76
2022/02/22 07:36:05;;;;;;;1.52;0.70;;;20.90;37.40;;;;;;5114427;28;20134;-76
2022/02/22 07:38:31;;;;;;;1.73;0.93;;;20.90;37.40;;;;;;5114305;28;20047;-76
2022/02/22 07:40:57;;;;;;;3.33;0.93;;;20.90;37.40;;;;;;5114691;28;20481;-76
2022/02/22 07:43:22;;;;;;;1.35;0.73;;;20.90;37.40;;;;;;5114373;28;20388;-76
2022/02/22 07:45:48;;;;;;;1.65;0.90;;;20.90;37.40;;;;;;5114596;28;20056;-76
2022/02/22 07:48:13;;;;;;;2.65;1.02;;;20.90;37.30;;;;;;5114381;28;20066;-76
2022/02/22 07:50:39;;;;;;;1.90;0.85;;;21.00;37.30;;;;;;5114619;28;20105;-76
2022/02/22 07:53:05;;;;;;;1.95;1.10;;;21.00;37.80;;;;;;5096084;28;20499;-76
2022/02/22 07:55:31;;;;;;;2.40;1.10;;;21.00;37.30;;;;;;5114372;28;20221;-76
2022/02/22 07:57:56;;;;;;;2.15;1.10;;;21.00;37.30;;;;;;5114197;28;20079;-76
2022/02/22 08:00:22;;;;;;;1.92;1.05;;;21.00;37.20;;;;;;5114449;28;20051;-76
2022/02/22 08:02:47;;;;;;;1.20;0.85;;;21.00;37.20;;;;;;5095843;28;20120;-76
2022/02/22 08:05:13;;;;;;;2.00;0.90;;;21.00;37.20;;;;;;5094952;28;20052;-76
2022/02/22 08:07:39;;;;;;;1.38;0.90;;;21.00;37.10;;;;;;5113779;28;20487;-76
2022/02/22 08:10:07;;;;;;;1.13;0.85;;;21.10;37.10;;;;;;5112477;28;20063;-76
2022/02/22 08:12:32;;;;;;;1.42;0.85;;;21.10;37.10;;;;;;5114017;28;20055;-76
2022/02/22 08:14:58;;;;;;;2.58;0.95;;;21.00;37.10;;;;;;5113846;28;20040;-76
2022/02/22 08:17:23;;;;;;;1.65;0.80;;;21.10;37.20;;;;;;5113922;28;20109;-76
2022/02/22 08:19:49;;;;;;;1.55;0.77;;;21.00;37.10;;;;;;5113646;28;20055;-76
2022/02/22 08:22:15;;;;;;;1.63;0.90;;;21.00;37.10;;;;;;5114232;28;20428;-76
2022/02/22 08:24:41;;;;;;;1.83;0.85;;;21.00;37.10;;;;;;5114164;28;20051;-76
2022/02/22 08:27:06;;;;;;;2.60;1.00;;;21.00;37.10;;;;;;5112805;28;20055;-76
2022/02/22 08:29:32;;;;;;;0.93;0.75;;;21.10;37.10;;;;;;5113837;28;20047;-76
2022/02/22 08:31:58;;;;;;;1.70;1.00;;;21.10;37.10;;;;;;5113516;28;20089;-76
2022/02/22 08:34:23;;;;;;;1.67;1.10;;;21.10;37.00;;;;;;5113483;28;20487;-76
2022/02/22 08:36:49;;;;;;;1.17;0.90;;;21.10;37.00;;;;;;5095153;28;20055;-76
2022/02/22 08:39:14;;;;;;;1.70;1.10;;;21.10;37.00;;;;;;5113341;28;20060;-76
2022/02/22 08:41:40;;;;;;;2.67;1.10;;;21.20;37.00;;;;;;5095000;28;20142;-76
2022/02/22 08:44:06;;;;;;;2.25;1.02;;;21.20;37.10;;;;;;5112015;28;20051;-76
2022/02/22 08:46:31;;;;;;;3.25;1.35;;;21.20;37.00;;;;;;5113271;28;20138;-76
2022/02/22 08:48:57;;;;;;;2.55;0.98;;;21.20;37.50;;;;;;5093160;28;20052;-76
2022/02/22 08:51:24;;;;;;;2.53;1.00;;;21.20;37.00;;;;;;5113201;28;20067;-76
2022/02/22 08:53:50;;;;;;;2.92;0.90;;;21.20;37.00;;;;;;5113150;28;20506;-76
2022/02/22 08:56:18;;;;;;;1.35;0.80;;;21.20;36.90;;;;;;5094927;28;20096;-76
2022/02/22 08:58:44;;;;;;;1.13;0.90;;;21.20;36.90;;;;;;5113060;28;20056;-76
2022/02/22 09:01:09;;;;;;;1.67;0.98;;;21.20;36.90;;;;;;5094739;28;20104;-76
2022/02/22 09:03:35;;;;;;;1.40;0.90;;;21.20;36.90;;;;;;5113019;28;20083;-76
2022/02/22 09:06:01;;;;;;;1.45;1.00;;;21.20;36.90;;;;;;5093107;28;20109;-76
2022/02/22 09:08:27;;;;;;;2.88;1.23;;;21.20;37.00;;;;;;5094133;28;20047;-80
2022/02/22 09:10:53;;;;;;;3.45;1.27;;;21.20;36.90;;;;;;5093634;28;20461;-76
2022/02/22 09:13:19;;;;;;;4.72;1.55;;;21.20;37.10;;;;;;5112959;28;20051;-79
2022/02/22 09:15:45;;;;;;;8.02;2.20;;;21.10;36.90;;;;;;5112988;28;20522;-77
2022/02/22 09:18:11;;;;;;;4.95;1.70;;;21.20;36.80;;;;;;5093592;28;20105;-77
2022/02/22 09:20:37;;;;;;;5.63;1.92;;;21.20;36.60;;;;;;5112833;28;20055;-77
2022/02/22 09:23:03;;;;;;;5.00;2.10;;;21.20;36.50;;;;;;5094572;28;20054;-77
2022/02/22 09:25:35;;;;;;;9.30;2.20;;;21.20;36.50;;;;;;5112968;28;20143;-77
2022/02/22 09:28:02;;;;;;;7.35;1.75;;;21.10;36.40;;;;;;5113236;28;20053;-77
2022/02/22 09:30:28;;;;;;;7.35;2.38;;;21.10;36.40;;;;;;5077396;28;20048;-77
2022/02/22 09:32:54;;;;;;;7.00;2.30;;;21.10;36.40;;;;;;5112932;28;20048;-77
2022/02/22 09:35:23;;;;;;;6.68;2.20;;;21.10;36.40;;;;;;5113104;28;20048;-77
2022/02/22 09:37:49;;;;;;;5.82;2.03;;;21.10;36.40;;;;;;5113003;28;20475;-76
2022/02/22 09:40:15;;;;;;;11.50;3.17;;;21.10;36.60;;;;;;5096979;28;20063;-77
2022/02/22 09:42:42;;;;;;;11.27;2.65;;;21.10;36.90;;;;;;5116396;28;20509;-77
2022/02/22 09:45:08;;;;;;;12.25;2.53;;;21.20;37.10;;;;;;5116269;28;20056;-77
2022/02/22 09:47:35;;;;;;;10.65;2.70;;;21.20;37.00;;;;;;5116311;28;20047;-76
2022/02/22 09:50:02;;;;;;;13.52;3.22;;;21.20;36.70;;;;;;5116005;28;20100;-76
2022/02/22 09:52:28;;;;;;;10.85;3.15;;;21.20;36.50;;;;;;5116237;28;20054;-76
2022/02/22 09:54:53;;;;;;;12.73;2.92;;;21.20;36.60;;;;;;5115177;28;20047;-76
2022/02/22 09:57:19;;;;;;;7.90;3.05;;;21.20;36.90;;;;;;5097769;28;20128;-77
2022/02/22 09:59:44;;;;;;;12.70;3.28;;;21.20;36.70;;;;;;5116085;28;20051;-76
2022/02/22 10:02:10;;;;;;;9.40;2.75;;;21.20;36.50;;;;;;5116134;28;20134;-76
2022/02/22 10:04:43;;;;;;;9.93;3.55;;;21.20;36.40;;;;;;5116383;28;20051;-77
2022/02/22 10:07:09;;;;;;;12.73;2.95;;;21.20;36.40;;;;;;5116056;28;20047;-77
2022/02/22 10:09:50;;;;;;;11.45;2.58;;;21.20;36.40;;;;;;5097359;28;20551;-77
2022/02/22 10:12:27;;;;;;;13.38;2.47;;;21.20;36.40;;;;;;5098047;28;20135;-77
2022/02/22 10:14:55;;;;;;;9.98;2.78;;;21.20;36.50;;;;;;5097488;28;20143;-76
2022/02/22 10:17:21;;;;;;;12.73;2.83;;;21.20;36.50;;;;;;5115969;28;20631;-77
2022/02/22 10:19:56;;;;;;;10.38;2.75;;;21.20;36.50;;;;;;5115716;28;20044;-77
2022/02/22 10:22:22;;;;;;;15.25;3.28;;;21.20;36.50;;;;;;5114626;28;20105;-77
2022/02/22 10:24:47;;;;;;;8.80;3.22;;;21.20;36.50;;;;;;5116013;28;20403;-77
2022/02/22 10:27:13;;;;;;;12.93;3.35;;;21.10;36.50;;;;;;5114344;28;20061;-77
2022/02/22 10:29:38;;;;;;;8.00;2.53;;;21.20;36.50;;;;;;5097226;28;20126;-77
2022/02/22 10:32:12;;;;;;;8.10;2.67;;;21.20;36.40;;;;;;5115548;28;20055;-77
2022/02/22 10:34:37;;;;;;;10.35;3.03;;;21.20;36.50;;;;;;5097204;28;20081;-77
2022/02/22 10:37:03;;;;;;;9.93;3.45;;;21.20;36.40;;;;;;5115504;28;20554;-76
2022/02/22 10:39:28;;;;;;;9.75;2.95;;;21.20;36.40;;;;;;5114035;28;20492;-77
2022/02/22 10:41:56;;;;;;;12.38;3.40;;;21.20;36.40;;;;;;5115488;28;20079;-76
2022/02/22 10:44:29;;;;;;;13.57;3.03;;;21.20;36.30;;;;;;5097193;28;20456;-77
2022/02/22 10:46:56;;;;;;;13.65;2.85;;;21.20;36.30;;;;;;5115287;28;20051;-77
2022/02/22 10:49:25;;;;;;;6.80;2.97;;;21.20;36.30;;;;;;5114536;28;20040;-77
2022/02/22 10:51:51;;;;;;;12.88;3.05;;;21.20;36.30;;;;;;5113900;28;20052;-77
2022/02/22 10:54:20;;;;;;;10.40;2.72;;;21.20;36.30;;;;;;5114265;28;20378;-77
2022/02/22 10:56:46;;;;;;;10.68;2.78;;;21.20;36.40;;;;;;5078241;28;20043;-77
2022/02/22 10:59:12;;;;;;;13.35;2.88;;;21.20;36.40;;;;;;5114931;28;20475;-74
2022/02/22 11:01:38;;;;;;;11.70;2.88;;;21.10;36.60;;;;;;5115090;28;20523;-74
2022/02/22 11:04:05;;;;;;;12.60;2.78;;;21.20;36.50;;;;;;5096670;28;20138;-74
2022/02/22 11:06:31;;;;;;;9.43;2.50;;;21.20;36.40;;;;;;5115030;28;20052;-74
2022/02/22 11:08:58;;;;;;;11.60;2.88;;;21.20;36.50;;;;;;5114964;28;20067;-74
2022/02/22 11:11:37;;;;;;;8.35;3.00;;;21.20;36.40;;;;;;5096448;28;20052;-74
2022/02/22 11:14:11;;;;;;;12.15;3.30;;;21.20;36.40;;;;;;5114692;28;20096;-73
2022/02/22 11:16:45;;;;;;;10.35;2.90;;;21.20;36.80;;;;;;5114763;28;20059;-73
2022/02/22 11:19:20;;;;;;;10.75;3.05;;;21.20;36.60;;;;;;5114957;28;20054;-73
2022/02/22 11:21:51;;;;;;;11.93;2.80;;;21.20;36.50;;;;;;5114772;28;20475;-73
2022/02/22 11:24:18;;;;;;;10.02;2.90;;;21.20;36.50;;;;;;5114722;28;20062;-73
2022/02/22 11:26:59;;;;;;;10.32;3.40;;;21.20;36.40;;;;;;5114784;28;20063;-73
2022/02/22 11:29:28;;;;;;;12.20;3.20;;;21.20;37.00;;;;;;5113513;28;20048;-73
2022/02/22 11:32:03;;;;;;;8.77;2.50;;;21.10;36.60;;;;;;5115275;28;20056;-73
2022/02/22 11:34:38;;;;;;;10.07;2.97;;;21.10;36.50;;;;;;5114759;28;20051;-73
2022/02/22 11:37:07;;;;;;;9.82;3.25;;;21.00;36.50;;;;;;5114621;28;20134;-73
2022/02/22 11:39:51;;;;;;;13.18;3.03;;;21.10;36.50;;;;;;5094033;28;20138;-73
2022/02/22 11:42:31;;;;;;;11.70;2.83;;;21.10;36.60;;;;;;5112933;28;20047;-73
2022/02/22 11:45:08;;;;;;;12.02;2.85;;;21.10;36.50;;;;;;5114469;28;20074;-73
2022/02/22 11:47:36;;;;;;;7.47;2.92;;;21.00;37.00;;;;;;5114443;28;20110;-73
2022/02/22 11:50:10;;;;;;;10.98;2.90;;;21.00;36.50;;;;;;5114215;28;20047;-74
2022/02/22 11:52:46;;;;;;;12.02;3.20;;;21.00;36.50;;;;;;5114199;28;20048;-73
2022/02/22 11:55:16;;;;;;;9.98;3.10;;;21.00;36.50;;;;;;5114151;28;20403;-73
2022/02/22 11:58:00;;;;;;;14.30;3.45;;;21.00;36.50;;;;;;5114137;28;20416;-73
2022/02/22 12:00:36;;;;;;;10.90;2.58;;;21.00;36.50;;;;;;5113662;28;20436;-74
2022/02/22 12:03:14;;;;;;;9.57;3.00;;;21.00;36.50;;;;;;5113606;28;20199;-73
2022/02/22 12:06:00;;;;;;;11.32;3.25;;;21.00;36.50;;;;;;5114020;28;20475;-73
2022/02/22 12:08:38;;;;;;;6.05;2.50;;;21.00;36.50;;;;;;5113831;28;20052;-73
2022/02/22 12:11:14;;;;;;;10.10;3.28;;;21.00;36.40;;;;;;5113832;28;20043;-73
2022/02/22 12:13:57;;;;;;;8.65;2.72;;;21.00;36.50;;;;;;5110947;28;20095;-73
2022/02/22 12:16:28;;;;;;;10.05;3.13;;;21.00;36.50;;;;;;5114527;28;20047;-73
2022/02/22 12:18:57;;;;;;;9.02;2.70;;;21.00;36.50;;;;;;5095702;28;20056;-73
2022/02/22 12:21:26;;;;;;;7.53;2.72;;;21.00;36.50;;;;;;5113836;28;20048;-73
2022/02/22 12:23:53;;;;;;;8.50;3.20;;;21.00;36.50;;;;;;5095443;28;20051;-73
2022/02/22 12:26:22;;;;;;;12.45;3.25;;;21.00;36.50;;;;;;5113861;28;20056;-73
2022/02/22 12:28:55;;;;;;;10.77;3.50;;;21.00;36.50;;;;;;5113400;28;20079;-73
2022/02/22 12:31:37;;;;;;;13.35;3.53;;;21.00;36.50;;;;;;5095368;28;20526;-73
2022/02/22 12:34:05;;;;;;;11.10;3.17;;;20.90;36.50;;;;;;5113558;28;20479;-73
2022/02/22 12:36:32;;;;;;;9.88;3.42;;;20.90;36.50;;;;;;5114081;28;20047;-73
2022/02/22 12:39:04;;;;;;;9.25;3.13;;;20.90;36.60;;;;;;5113528;28;20043;-73
2022/02/22 12:41:33;;;;;;;15.68;3.75;;;20.90;36.50;;;;;;5095292;28;20534;-73
2022/02/22 12:43:58;;;;;;;12.30;3.30;;;20.90;36.50;;;;;;5095358;28;20074;-73
2022/02/22 12:46:24;;;;;;;10.40;3.53;;;20.90;36.60;;;;;;5113421;28;20043;-73
2022/02/22 12:48:51;;;;;;;13.63;3.13;;;20.90;36.60;;;;;;5094970;28;20043;-74